Time;durP1;ratioP1;P1;durP2;ratioP2;P2;SDS_P1;SDS_P2;PMS_P1;PMS_P2;Temp;Humidity;BMP_temperature;BMP_pressure;BME280_temperature;BME280_humidity;BME280_pressure;Samples;Min_cycle;Max_cycle;Signal;HPM_P1;HPM_P2
2023/09/16 00:01:49;;;;;;;8.02;4.95;;;19.30;99.90;;;;;;5057762;28;20024;-79
2023/09/16 00:04:14;;;;;;;8.63;5.32;;;19.20;99.90;;;;;;5074789;28;20035;-79
2023/09/16 00:06:40;;;;;;;7.55;5.10;;;19.20;99.90;;;;;;5057054;28;20028;-79
2023/09/16 00:09:05;;;;;;;5.90;4.75;;;19.10;99.90;;;;;;5074263;28;20035;-80
2023/09/16 00:11:32;;;;;;;7.75;4.82;;;19.10;99.90;;;;;;5057425;28;20033;-79
2023/09/16 00:13:57;;;;;;;9.68;4.97;;;19.00;99.90;;;;;;5074754;28;20024;-79
2023/09/16 00:16:23;;;;;;;8.15;5.25;;;19.00;99.90;;;;;;5056520;28;20461;-79
2023/09/16 00:18:49;;;;;;;7.13;4.90;;;19.00;99.90;;;;;;5074639;28;20032;-79
2023/09/16 00:21:14;;;;;;;6.80;4.82;;;19.00;99.90;;;;;;5074622;28;20040;-80
2023/09/16 00:23:42;;;;;;;8.23;4.93;;;18.90;99.90;;;;;;5057520;28;20099;-79
2023/09/16 00:26:07;;;;;;;6.47;4.63;;;18.90;99.90;;;;;;5056982;28;20028;-80
2023/09/16 00:28:35;;;;;;;10.18;5.55;;;18.90;99.90;;;;;;5057193;28;20025;-79
2023/09/16 00:31:01;;;;;;;7.22;4.50;;;18.80;99.90;;;;;;5055921;28;20033;-80
2023/09/16 00:33:27;;;;;;;7.15;5.13;;;18.80;99.90;;;;;;5057018;28;20032;-80
2023/09/16 00:35:52;;;;;;;7.68;5.38;;;18.90;99.90;;;;;;5056984;28;20032;-79
2023/09/16 00:38:18;;;;;;;7.05;5.07;;;18.90;99.90;;;;;;5074242;28;20099;-79
2023/09/16 00:40:43;;;;;;;10.70;5.57;;;18.90;99.90;;;;;;5056964;28;20035;-80
2023/09/16 00:43:09;;;;;;;8.70;5.00;;;18.80;99.90;;;;;;5074176;28;20374;-80
2023/09/16 00:45:35;;;;;;;7.15;4.78;;;18.80;99.90;;;;;;5057231;28;20409;-80
2023/09/16 00:48:01;;;;;;;7.75;5.03;;;18.80;99.90;;;;;;5074378;28;20028;-79
2023/09/16 00:50:26;;;;;;;8.18;5.28;;;18.80;99.90;;;;;;5056444;28;20044;-80
2023/09/16 00:52:54;;;;;;;7.63;5.22;;;18.80;99.90;;;;;;5057101;28;20020;-78
2023/09/16 00:55:21;;;;;;;11.10;4.80;;;18.80;99.90;;;;;;5074089;28;20165;-80
2023/09/16 00:57:48;;;;;;;7.03;4.78;;;18.70;99.90;;;;;;5056650;28;20389;-79
2023/09/16 01:00:16;;;;;;;7.68;5.25;;;18.60;99.90;;;;;;5056183;28;20036;-80
2023/09/16 01:02:43;;;;;;;8.13;5.35;;;18.60;99.90;;;;;;5073952;28;20477;-81
2023/09/16 01:05:14;;;;;;;6.95;5.10;;;18.50;99.90;;;;;;5056315;28;20473;-81
2023/09/16 01:07:41;;;;;;;7.50;5.13;;;18.50;99.90;;;;;;5056651;28;20029;-80
2023/09/16 01:10:08;;;;;;;9.07;5.20;;;18.40;99.90;;;;;;5074158;28;20462;-82
2023/09/16 01:12:33;;;;;;;6.78;4.95;;;18.40;99.90;;;;;;5074309;28;20024;-80
2023/09/16 01:14:59;;;;;;;7.47;4.78;;;18.30;99.90;;;;;;5056192;28;20373;-80
2023/09/16 01:17:33;;;;;;;7.80;5.65;;;18.30;99.90;;;;;;5056182;28;20063;-80
2023/09/16 01:20:06;;;;;;;8.32;4.93;;;18.20;99.90;;;;;;5056494;28;20052;-80
2023/09/16 01:22:33;;;;;;;7.60;4.88;;;18.20;99.90;;;;;;5055937;28;20031;-80
2023/09/16 01:25:03;;;;;;;7.68;5.00;;;18.30;99.90;;;;;;5056222;28;20056;-80
2023/09/16 01:27:29;;;;;;;6.68;5.07;;;18.30;99.90;;;;;;5055724;28;20549;-79
2023/09/16 01:29:55;;;;;;;9.63;5.32;;;18.20;99.90;;;;;;5056394;28;20067;-80
2023/09/16 01:32:27;;;;;;;8.68;5.50;;;18.20;99.90;;;;;;5073427;28;20457;-80
2023/09/16 01:34:54;;;;;;;8.52;5.07;;;18.20;99.90;;;;;;5056221;28;20032;-80
2023/09/16 01:37:23;;;;;;;7.75;5.55;;;18.20;99.90;;;;;;5073187;28;20028;-80
2023/09/16 01:39:58;;;;;;;9.30;5.50;;;18.10;99.90;;;;;;5056408;28;20032;-80
2023/09/16 01:42:26;;;;;;;7.53;4.93;;;18.10;99.90;;;;;;5055711;28;20121;-80
2023/09/16 01:44:54;;;;;;;6.55;4.90;;;18.10;99.90;;;;;;5056223;28;20029;-80
2023/09/16 01:47:20;;;;;;;8.52;5.72;;;18.00;99.90;;;;;;5072308;28;20060;-80
2023/09/16 01:49:45;;;;;;;7.13;5.05;;;18.00;99.90;;;;;;5073419;28;20084;-80
2023/09/16 01:52:11;;;;;;;8.05;5.00;;;18.10;99.90;;;;;;5072448;28;20021;-79
2023/09/16 01:54:37;;;;;;;7.55;4.85;;;18.10;99.90;;;;;;5073776;28;20032;-80
2023/09/16 01:57:02;;;;;;;7.00;4.78;;;18.00;99.90;;;;;;5073785;28;20031;-80
2023/09/16 01:59:28;;;;;;;8.30;5.25;;;17.90;99.90;;;;;;5072209;28;20535;-80
2023/09/16 02:01:54;;;;;;;7.07;4.90;;;17.80;99.90;;;;;;5073668;28;20024;-79
2023/09/16 02:04:19;;;;;;;8.20;5.25;;;17.80;99.90;;;;;;5071324;28;20032;-80
2023/09/16 02:06:46;;;;;;;8.40;5.07;;;17.90;99.90;;;;;;5072984;28;20036;-80
2023/09/16 02:09:12;;;;;;;7.35;5.15;;;17.90;99.90;;;;;;5054845;28;20039;-82
2023/09/16 02:11:38;;;;;;;8.48;5.38;;;17.80;99.90;;;;;;5071971;28;20086;-79
2023/09/16 02:14:04;;;;;;;8.05;5.63;;;17.80;99.90;;;;;;5072501;28;20060;-80
2023/09/16 02:16:31;;;;;;;7.53;5.50;;;17.80;99.90;;;;;;5072863;28;20051;-80
2023/09/16 02:18:57;;;;;;;9.50;5.47;;;17.70;99.90;;;;;;5055534;28;20071;-79
2023/09/16 02:21:22;;;;;;;7.55;5.10;;;17.60;99.90;;;;;;5072090;28;20059;-80
2023/09/16 02:23:48;;;;;;;8.02;5.28;;;17.60;99.90;;;;;;5073278;28;20028;-81
2023/09/16 02:26:14;;;;;;;7.03;4.78;;;17.60;99.90;;;;;;5072916;28;20108;-81
2023/09/16 02:28:40;;;;;;;7.53;5.00;;;17.50;99.90;;;;;;5072061;28;20159;-81
2023/09/16 02:31:09;;;;;;;6.88;4.95;;;17.50;99.90;;;;;;5073077;28;20462;-81
2023/09/16 02:33:38;;;;;;;7.20;4.95;;;17.60;99.90;;;;;;5054990;28;20469;-80
2023/09/16 02:36:05;;;;;;;6.95;5.50;;;17.50;99.90;;;;;;5073320;28;20028;-80
2023/09/16 02:38:31;;;;;;;8.10;5.28;;;17.60;99.90;;;;;;5071156;28;20031;-80
2023/09/16 02:40:56;;;;;;;7.07;4.68;;;17.50;99.90;;;;;;5071717;28;20028;-80
2023/09/16 02:43:22;;;;;;;6.50;4.72;;;17.40;99.90;;;;;;5071075;28;20107;-80
2023/09/16 02:45:47;;;;;;;8.65;5.05;;;17.40;99.90;;;;;;5072817;28;20036;-80
2023/09/16 02:48:17;;;;;;;7.13;4.60;;;17.30;99.90;;;;;;5072793;28;20031;-84
2023/09/16 02:50:46;;;;;;;6.65;4.88;;;17.30;99.90;;;;;;5073238;28;20040;-81
2023/09/16 02:53:11;;;;;;;7.43;4.85;;;17.20;99.90;;;;;;5073031;28;20222;-82
2023/09/16 02:55:37;;;;;;;7.45;4.55;;;17.30;99.90;;;;;;5074821;28;20469;-80
2023/09/16 02:58:03;;;;;;;8.18;5.30;;;17.30;99.90;;;;;;5077002;28;20024;-81
2023/09/16 03:00:29;;;;;;;6.65;4.97;;;17.20;99.90;;;;;;5075357;28;20339;-81
2023/09/16 03:02:55;;;;;;;7.32;4.65;;;17.20;99.90;;;;;;5075773;28;20031;-81
2023/09/16 03:05:21;;;;;;;6.45;4.55;;;17.10;99.90;;;;;;5074876;28;20031;-81
2023/09/16 03:07:46;;;;;;;7.25;5.00;;;17.10;99.90;;;;;;5075761;28;20033;-80
2023/09/16 03:10:12;;;;;;;9.60;4.60;;;17.10;99.90;;;;;;5075461;28;20028;-83
2023/09/16 03:12:38;;;;;;;8.48;4.95;;;17.00;99.90;;;;;;5076406;28;20116;-81
2023/09/16 03:15:04;;;;;;;7.75;4.45;;;16.80;99.90;;;;;;5058468;28;20039;-79
2023/09/16 03:17:29;;;;;;;8.13;5.38;;;16.80;99.90;;;;;;5075775;28;20060;-79
2023/09/16 03:19:56;;;;;;;6.45;4.47;;;16.80;99.90;;;;;;5075020;28;20028;-80
2023/09/16 03:22:22;;;;;;;8.77;4.85;;;16.80;99.90;;;;;;5075708;28;20028;-80
2023/09/16 03:24:48;;;;;;;7.63;5.00;;;16.90;99.90;;;;;;5075980;28;20048;-80
2023/09/16 03:27:13;;;;;;;6.45;4.93;;;17.00;99.90;;;;;;5057865;28;20033;-85
2023/09/16 03:29:39;;;;;;;7.63;4.72;;;17.00;99.90;;;;;;5075896;28;20056;-80
2023/09/16 03:32:05;;;;;;;7.80;5.15;;;17.00;99.90;;;;;;5075060;28;20363;-80
2023/09/16 03:34:30;;;;;;;7.53;4.93;;;17.00;99.90;;;;;;5074169;28;20035;-80
2023/09/16 03:36:56;;;;;;;7.63;5.15;;;16.90;99.90;;;;;;5075786;28;20028;-79
2023/09/16 03:39:22;;;;;;;6.47;4.85;;;16.90;99.90;;;;;;5074208;28;20028;-80
2023/09/16 03:41:48;;;;;;;8.10;5.05;;;17.00;99.90;;;;;;5058578;28;20033;-80
2023/09/16 03:44:14;;;;;;;6.72;4.78;;;17.00;99.90;;;;;;5075611;28;20082;-84
2023/09/16 03:46:40;;;;;;;7.43;4.88;;;17.10;99.90;;;;;;5074289;28;20029;-81
2023/09/16 03:49:05;;;;;;;7.25;4.53;;;17.00;99.90;;;;;;5074533;28;20031;-80
2023/09/16 03:51:33;;;;;;;7.18;4.88;;;17.00;99.90;;;;;;5075321;28;20474;-81
2023/09/16 03:53:59;;;;;;;8.75;5.07;;;17.00;99.90;;;;;;5058217;28;20032;-81
2023/09/16 03:56:25;;;;;;;8.88;5.05;;;17.00;99.90;;;;;;5074941;28;20063;-81
2023/09/16 03:58:50;;;;;;;8.70;4.88;;;17.10;99.90;;;;;;5075517;28;20024;-80
2023/09/16 04:01:16;;;;;;;7.95;5.05;;;17.10;99.90;;;;;;5075402;28;20024;-82
2023/09/16 04:03:42;;;;;;;7.68;5.22;;;17.10;99.90;;;;;;5074174;28;20048;-81
2023/09/16 04:06:08;;;;;;;7.18;5.07;;;17.00;99.90;;;;;;5074601;28;20021;-80
2023/09/16 04:08:34;;;;;;;7.18;4.78;;;16.90;99.90;;;;;;5075005;28;20028;-80
2023/09/16 04:10:59;;;;;;;7.63;4.97;;;16.90;99.90;;;;;;5075573;28;20415;-81
2023/09/16 04:13:25;;;;;;;9.43;5.05;;;16.90;99.90;;;;;;5074060;28;20036;-81
2023/09/16 04:15:51;;;;;;;7.88;4.95;;;16.90;99.90;;;;;;5075450;28;20031;-80
2023/09/16 04:18:17;;;;;;;7.18;4.40;;;16.90;99.90;;;;;;5075003;28;20047;-82
2023/09/16 04:20:45;;;;;;;8.07;4.97;;;16.80;99.90;;;;;;5057352;28;20054;-80
2023/09/16 04:23:10;;;;;;;7.28;5.22;;;16.90;99.90;;;;;;5074966;28;20020;-80
2023/09/16 04:25:36;;;;;;;7.40;4.78;;;16.80;99.90;;;;;;5073909;28;20102;-80
2023/09/16 04:28:03;;;;;;;7.80;4.95;;;16.80;99.90;;;;;;5075213;28;20024;-80
2023/09/16 04:30:29;;;;;;;6.93;4.97;;;16.70;99.90;;;;;;5074733;28;20107;-80
2023/09/16 04:32:54;;;;;;;7.75;4.80;;;16.70;99.90;;;;;;5057243;28;20060;-80
2023/09/16 04:35:20;;;;;;;8.65;4.97;;;16.70;99.90;;;;;;5074362;28;20032;-82
2023/09/16 04:37:46;;;;;;;7.32;4.90;;;16.70;99.90;;;;;;5073903;28;20029;-80
2023/09/16 04:40:12;;;;;;;8.15;5.38;;;16.70;99.90;;;;;;5074406;28;20104;-80
2023/09/16 04:42:38;;;;;;;7.15;5.00;;;16.70;99.90;;;;;;5073329;28;20025;-80
2023/09/16 04:45:05;;;;;;;9.40;5.07;;;16.60;99.90;;;;;;5056879;28;20389;-80
2023/09/16 04:47:31;;;;;;;9.52;5.55;;;16.60;99.90;;;;;;5073182;28;20043;-80
2023/09/16 04:49:57;;;;;;;8.98;5.45;;;16.60;99.90;;;;;;5074383;28;20076;-80
2023/09/16 04:52:25;;;;;;;8.05;5.30;;;16.60;99.90;;;;;;5056474;28;20098;-80
2023/09/16 04:54:53;;;;;;;8.77;5.65;;;16.60;99.90;;;;;;5074846;28;20020;-80
2023/09/16 04:57:21;;;;;;;10.90;5.25;;;16.70;99.90;;;;;;5056772;28;20025;-83
2023/09/16 04:59:48;;;;;;;7.63;5.47;;;16.70;99.90;;;;;;5074329;28;20029;-80
2023/09/16 05:02:13;;;;;;;8.18;5.68;;;16.70;99.90;;;;;;5074207;28;20029;-80
2023/09/16 05:04:39;;;;;;;7.80;5.20;;;16.70;99.90;;;;;;5072657;28;20025;-81
2023/09/16 05:07:05;;;;;;;9.43;5.18;;;16.70;99.90;;;;;;5074295;28;20036;-80
2023/09/16 05:09:30;;;;;;;9.20;5.15;;;16.70;99.90;;;;;;5073732;28;20033;-81
2023/09/16 05:11:56;;;;;;;8.60;5.53;;;16.70;99.90;;;;;;5073336;28;20092;-80
2023/09/16 05:14:23;;;;;;;10.05;5.32;;;16.60;99.90;;;;;;5074005;28;20103;-84
2023/09/16 05:16:49;;;;;;;8.15;5.75;;;16.60;99.90;;;;;;5060622;28;20473;-80
2023/09/16 05:19:14;;;;;;;10.18;5.57;;;16.60;99.90;;;;;;5074727;28;20024;-80
2023/09/16 05:21:40;;;;;;;8.43;5.25;;;16.70;99.90;;;;;;5076506;28;20025;-80
2023/09/16 05:24:06;;;;;;;7.93;5.30;;;16.70;99.90;;;;;;5066982;28;20036;-80
2023/09/16 05:26:32;;;;;;;9.85;5.75;;;16.60;99.90;;;;;;5064030;28;20037;-81
2023/09/16 05:28:57;;;;;;;7.93;5.20;;;16.60;99.90;;;;;;5065118;28;20037;-80
2023/09/16 05:31:23;;;;;;;9.10;5.47;;;16.60;99.90;;;;;;5064736;28;20044;-82
2023/09/16 05:33:52;;;;;;;8.55;5.80;;;16.70;99.90;;;;;;5074324;28;20024;-80
2023/09/16 05:36:18;;;;;;;8.70;5.68;;;16.60;99.90;;;;;;5080785;28;20031;-83
2023/09/16 05:38:44;;;;;;;8.98;5.45;;;16.60;99.90;;;;;;5051268;28;20123;-82
2023/09/16 05:41:09;;;;;;;10.32;6.03;;;16.60;99.90;;;;;;5067797;28;20422;-81
2023/09/16 05:43:35;;;;;;;7.07;4.82;;;16.50;99.90;;;;;;5080328;28;20108;-81
2023/09/16 05:46:01;;;;;;;9.20;5.95;;;16.60;99.90;;;;;;5084398;28;20366;-81
2023/09/16 05:48:27;;;;;;;8.10;5.85;;;16.60;99.90;;;;;;5083270;28;20020;-81
2023/09/16 05:50:57;;;;;;;9.15;5.70;;;16.70;99.90;;;;;;5071916;28;20040;-81
2023/09/16 05:53:23;;;;;;;8.73;5.63;;;16.80;99.90;;;;;;5050950;28;20035;-81
2023/09/16 05:55:49;;;;;;;9.48;5.78;;;16.80;99.90;;;;;;5070985;28;20385;-80
2023/09/16 05:58:14;;;;;;;9.90;6.13;;;16.80;99.90;;;;;;5063487;28;20024;-80
2023/09/16 06:00:40;;;;;;;9.30;6.15;;;16.80;99.90;;;;;;5064586;28;20086;-80
2023/09/16 06:03:06;;;;;;;9.25;5.93;;;16.90;99.90;;;;;;5085044;28;20437;-81
2023/09/16 06:05:33;;;;;;;8.70;5.90;;;16.90;99.90;;;;;;5082925;28;20035;-81
2023/09/16 06:07:58;;;;;;;10.70;6.18;;;17.00;99.90;;;;;;5060366;28;20119;-81
2023/09/16 06:10:24;;;;;;;8.77;6.07;;;17.00;99.90;;;;;;5062825;28;20111;-84
2023/09/16 06:12:50;;;;;;;8.55;6.13;;;17.00;99.90;;;;;;5082101;28;20037;-80
2023/09/16 06:15:16;;;;;;;11.23;5.88;;;17.10;99.90;;;;;;5061953;28;20545;-80
2023/09/16 06:17:42;;;;;;;10.85;6.30;;;17.10;99.90;;;;;;5058685;28;20028;-81
2023/09/16 06:20:08;;;;;;;8.52;6.10;;;17.10;99.90;;;;;;5062411;28;20488;-81
2023/09/16 06:22:34;;;;;;;9.80;6.32;;;17.10;99.90;;;;;;5084410;28;20020;-81
2023/09/16 06:24:59;;;;;;;11.05;5.80;;;17.10;99.90;;;;;;5072314;28;20548;-81
2023/09/16 06:27:25;;;;;;;10.18;6.85;;;17.20;99.90;;;;;;5081044;28;20459;-83
2023/09/16 06:29:52;;;;;;;9.63;6.10;;;17.20;99.90;;;;;;5087630;28;20039;-80
2023/09/16 06:32:19;;;;;;;8.50;6.30;;;17.20;99.90;;;;;;5082313;28;20024;-80
2023/09/16 06:34:44;;;;;;;8.75;6.18;;;17.30;99.90;;;;;;5065396;28;20132;-81
2023/09/16 06:37:10;;;;;;;10.07;6.45;;;17.30;99.90;;;;;;5068011;28;20024;-81
2023/09/16 06:39:36;;;;;;;8.90;6.40;;;17.40;99.90;;;;;;5084849;28;20031;-80
2023/09/16 06:42:04;;;;;;;11.15;6.78;;;17.40;99.90;;;;;;5081303;28;20558;-81
2023/09/16 06:44:30;;;;;;;10.30;6.18;;;17.40;99.90;;;;;;5079475;28;20052;-83
2023/09/16 06:46:56;;;;;;;10.13;6.22;;;17.40;99.90;;;;;;5077086;28;20094;-80
2023/09/16 06:49:22;;;;;;;9.43;5.90;;;17.50;99.90;;;;;;5064562;28;20025;-82
2023/09/16 06:51:47;;;;;;;10.82;6.07;;;17.50;99.90;;;;;;5086987;28;20045;-82
2023/09/16 06:54:13;;;;;;;11.85;6.30;;;17.60;99.90;;;;;;5068315;28;20381;-81
2023/09/16 06:56:39;;;;;;;12.25;6.30;;;17.60;99.90;;;;;;5092014;28;20025;-80
2023/09/16 06:59:04;;;;;;;10.70;6.53;;;17.60;99.90;;;;;;5082447;28;20112;-80
2023/09/16 07:01:32;;;;;;;9.10;6.45;;;17.70;99.90;;;;;;5082296;28;20130;-81
2023/09/16 07:03:57;;;;;;;10.50;6.10;;;17.70;99.90;;;;;;5075603;28;20457;-81
2023/09/16 07:06:23;;;;;;;10.65;6.22;;;17.80;99.90;;;;;;5068841;28;20027;-84
2023/09/16 07:08:49;;;;;;;7.63;5.40;;;17.80;99.90;;;;;;5068347;28;20032;-80
2023/09/16 07:11:17;;;;;;;12.48;6.45;;;17.80;99.90;;;;;;5085853;28;20032;-80
2023/09/16 07:13:43;;;;;;;10.93;6.25;;;17.90;99.90;;;;;;5081870;28;20046;-80
2023/09/16 07:16:11;;;;;;;8.82;5.95;;;18.00;99.90;;;;;;5058166;28;20047;-80
2023/09/16 07:18:37;;;;;;;9.43;5.65;;;18.00;99.90;;;;;;5062927;28;20024;-80
2023/09/16 07:21:02;;;;;;;10.90;6.57;;;18.00;99.90;;;;;;5061372;28;20055;-82
2023/09/16 07:23:28;;;;;;;10.23;6.10;;;18.10;99.90;;;;;;5057871;28;20025;-81
2023/09/16 07:25:55;;;;;;;11.23;5.85;;;18.10;99.90;;;;;;5069624;28;20036;-80
2023/09/16 07:28:21;;;;;;;9.32;5.97;;;18.20;99.90;;;;;;5057633;28;20063;-81
2023/09/16 07:30:47;;;;;;;8.65;5.88;;;18.20;99.90;;;;;;5055900;28;20345;-79
2023/09/16 07:33:12;;;;;;;9.80;6.28;;;18.20;99.90;;;;;;5071352;28;20021;-82
2023/09/16 07:35:38;;;;;;;9.18;6.05;;;18.30;99.90;;;;;;5057572;28;20043;-78
2023/09/16 07:38:03;;;;;;;10.27;5.78;;;18.30;99.90;;;;;;5066798;28;20052;-78
2023/09/16 07:40:32;;;;;;;9.55;5.97;;;18.30;99.90;;;;;;5081305;28;20031;-79
2023/09/16 07:42:58;;;;;;;10.35;6.00;;;18.40;99.90;;;;;;5059041;28;20032;-77
2023/09/16 07:45:23;;;;;;;9.23;6.07;;;18.40;99.90;;;;;;5059332;28;20169;-81
2023/09/16 07:47:49;;;;;;;8.88;5.75;;;18.50;99.90;;;;;;5078569;28;20035;-80
2023/09/16 07:50:15;;;;;;;13.57;6.40;;;18.50;99.90;;;;;;5077356;28;20067;-82
2023/09/16 07:52:42;;;;;;;9.15;6.10;;;18.50;99.90;;;;;;5053744;28;20025;-81
2023/09/16 07:55:08;;;;;;;8.07;5.70;;;18.60;99.90;;;;;;5054229;28;20029;-81
2023/09/16 07:57:33;;;;;;;10.57;6.68;;;18.70;99.90;;;;;;5054049;28;20033;-82
2023/09/16 07:59:59;;;;;;;8.77;6.13;;;18.70;99.90;;;;;;5052933;28;20366;-81
2023/09/16 08:02:25;;;;;;;10.70;5.82;;;18.70;99.90;;;;;;5053306;28;20033;-83
2023/09/16 08:04:50;;;;;;;10.02;6.07;;;18.70;99.90;;;;;;5052364;28;20397;-82
2023/09/16 08:07:16;;;;;;;8.50;5.32;;;18.80;99.90;;;;;;5052845;28;20062;-81
2023/09/16 08:09:42;;;;;;;9.93;5.30;;;18.90;99.90;;;;;;5052327;28;20031;-81
2023/09/16 08:12:08;;;;;;;9.27;6.18;;;18.90;99.90;;;;;;5053288;28;20055;-80
2023/09/16 08:14:33;;;;;;;35.92;7.38;;;19.00;99.90;;;;;;5054401;28;20036;-80
2023/09/16 08:17:03;;;;;;;13.02;5.85;;;19.00;99.90;;;;;;5052978;28;20037;-82
2023/09/16 08:19:30;;;;;;;9.30;5.20;;;19.00;99.90;;;;;;5053882;28;20021;-84
2023/09/16 08:21:55;;;;;;;10.27;5.97;;;19.00;99.90;;;;;;5053524;28;20031;-80
2023/09/16 08:24:22;;;;;;;8.30;5.72;;;19.10;99.90;;;;;;5054305;28;20378;-80
2023/09/16 08:26:48;;;;;;;9.23;5.78;;;19.10;99.90;;;;;;5051525;28;20068;-84
2023/09/16 08:29:16;;;;;;;11.35;5.85;;;19.10;99.90;;;;;;5052778;28;20056;-81
2023/09/16 08:31:42;;;;;;;9.65;5.57;;;19.20;99.90;;;;;;5051857;28;20028;-80
2023/09/16 08:34:08;;;;;;;10.85;5.93;;;19.20;99.90;;;;;;5053179;28;20430;-81
2023/09/16 08:36:34;;;;;;;8.85;5.70;;;19.30;99.90;;;;;;5054569;28;20029;-81
2023/09/16 08:38:59;;;;;;;10.38;6.15;;;19.30;99.90;;;;;;5056133;28;20032;-83
2023/09/16 08:41:36;;;;;;;8.10;5.63;;;19.30;99.90;;;;;;5057813;28;20225;-82
2023/09/16 08:44:05;;;;;;;8.20;5.38;;;19.40;99.90;;;;;;5052424;28;20051;-81
2023/09/16 08:46:33;;;;;;;7.22;5.03;;;19.40;99.90;;;;;;5051801;28;20059;-82
2023/09/16 08:49:00;;;;;;;8.48;4.65;;;19.40;99.90;;;;;;5052578;28;20458;-81
2023/09/16 08:51:29;;;;;;;10.63;5.20;;;19.50;99.90;;;;;;5066579;28;20053;-83
2023/09/16 08:53:58;;;;;;;8.55;4.88;;;19.60;99.90;;;;;;5065103;28;20033;-82
2023/09/16 08:56:24;;;;;;;7.57;4.93;;;19.70;99.90;;;;;;5071497;28;20056;-83
2023/09/16 08:58:50;;;;;;;7.80;5.18;;;19.80;99.90;;;;;;5071586;28;20056;-84
2023/09/16 09:01:20;;;;;;;6.93;4.82;;;19.80;99.90;;;;;;5063691;28;20032;-85
2023/09/16 09:03:45;;;;;;;7.57;5.13;;;19.80;99.90;;;;;;5071890;28;20279;-82
2023/09/16 09:06:12;;;;;;;7.25;4.63;;;19.90;99.90;;;;;;5066319;28;20025;-84
2023/09/16 09:08:38;;;;;;;7.80;4.82;;;19.90;99.90;;;;;;5072305;28;20024;-82
2023/09/16 09:11:04;;;;;;;8.13;4.85;;;19.90;99.90;;;;;;5059486;28;20447;-82
2023/09/16 09:13:31;;;;;;;8.00;4.88;;;20.00;99.90;;;;;;5062327;28;20040;-83
2023/09/16 09:16:00;;;;;;;9.75;5.63;;;20.10;99.90;;;;;;5068976;28;20032;-88
2023/09/16 09:18:29;;;;;;;6.55;4.55;;;20.10;99.90;;;;;;5068117;28;20032;-83
2023/09/16 09:20:55;;;;;;;7.13;4.50;;;20.10;99.90;;;;;;5071663;28;20044;-84
2023/09/16 09:23:21;;;;;;;7.47;4.72;;;20.20;99.90;;;;;;5056411;28;20025;-81
2023/09/16 09:25:47;;;;;;;10.05;4.82;;;20.30;99.90;;;;;;5072819;28;20033;-84
2023/09/16 09:28:13;;;;;;;8.95;4.68;;;20.30;99.90;;;;;;5070805;28;20024;-85
2023/09/16 09:30:41;;;;;;;7.03;4.55;;;20.30;99.90;;;;;;5066311;28;20029;-85
2023/09/16 09:33:13;;;;;;;10.00;5.43;;;20.40;99.90;;;;;;5081642;28;20032;-82
2023/09/16 09:35:39;;;;;;;9.20;5.13;;;20.40;99.90;;;;;;5057646;28;20115;-82
2023/09/16 09:38:05;;;;;;;7.03;4.95;;;20.50;99.90;;;;;;5067592;28;20515;-79
2023/09/16 09:40:30;;;;;;;8.18;5.00;;;20.60;99.90;;;;;;5062375;28;20024;-83
2023/09/16 09:42:56;;;;;;;6.82;4.70;;;20.60;99.90;;;;;;5061432;28;20058;-82
2023/09/16 09:45:24;;;;;;;7.82;4.47;;;20.70;99.90;;;;;;5066364;28;20102;-82
2023/09/16 09:47:52;;;;;;;6.82;4.55;;;20.90;99.90;;;;;;5061762;28;20048;-85
2023/09/16 09:50:19;;;;;;;6.75;4.82;;;20.80;99.90;;;;;;5051910;28;20376;-79
2023/09/16 09:52:50;;;;;;;7.50;4.78;;;20.90;99.90;;;;;;5031331;28;20441;-83
2023/09/16 09:55:29;;;;;;;6.35;4.63;;;20.90;99.90;;;;;;5031222;28;20034;-80
2023/09/16 09:57:55;;;;;;;6.93;4.38;;;21.00;99.90;;;;;;5030835;28;20029;-82
2023/09/16 10:00:23;;;;;;;8.57;4.70;;;21.00;99.90;;;;;;5032486;28;20029;-87
2023/09/16 10:02:49;;;;;;;8.48;4.47;;;21.00;99.90;;;;;;5030411;28;20034;-85
2023/09/16 10:05:22;;;;;;;6.88;4.47;;;21.00;99.90;;;;;;5039874;28;20037;-83
2023/09/16 10:07:49;;;;;;;7.47;4.40;;;21.20;99.90;;;;;;5034398;28;20029;-84
2023/09/16 10:10:21;;;;;;;7.25;4.47;;;21.30;99.90;;;;;;5037030;28;20516;-82
2023/09/16 10:12:47;;;;;;;7.50;4.82;;;21.30;99.90;;;;;;5035680;28;20045;-81
2023/09/16 10:15:14;;;;;;;5.82;4.30;;;21.30;99.90;;;;;;5037507;28;20049;-81
2023/09/16 10:17:45;;;;;;;8.32;5.05;;;21.30;99.90;;;;;;5038069;28;20022;-80
2023/09/16 10:20:11;;;;;;;5.35;4.40;;;21.40;99.90;;;;;;5036736;28;20026;-83
2023/09/16 10:22:40;;;;;;;6.40;4.18;;;21.50;99.90;;;;;;5036094;28;20034;-79
2023/09/16 10:25:08;;;;;;;5.97;4.10;;;21.60;99.90;;;;;;5040232;28;20047;-80
2023/09/16 10:27:40;;;;;;;10.68;5.07;;;21.60;99.90;;;;;;5035968;28;20020;-80
2023/09/16 10:30:05;;;;;;;;;;;21.60;99.90;;;;;;5035668;28;20030;-80
2023/09/16 10:32:31;;;;;;;5.30;4.05;;;21.90;99.90;;;;;;5034416;28;19916;-82
2023/09/16 10:34:59;;;;;;;5.13;3.97;;;21.90;99.90;;;;;;5038133;28;20029;-82
2023/09/16 10:37:26;;;;;;;9.43;4.30;;;22.00;99.90;;;;;;5034943;28;20033;-81
2023/09/16 10:39:53;;;;;;;6.45;4.20;;;22.00;99.90;;;;;;5035767;28;20557;-80
2023/09/16 10:42:21;;;;;;;7.18;4.20;;;22.00;99.90;;;;;;5032504;28;20116;-80
2023/09/16 10:44:47;;;;;;;7.60;4.70;;;22.10;99.90;;;;;;5034110;28;20053;-81
2023/09/16 10:47:16;;;;;;;4.85;3.95;;;22.10;99.90;;;;;;5033846;28;20044;-81
2023/09/16 10:49:41;;;;;;;5.78;4.50;;;22.20;99.90;;;;;;5039826;28;20036;-81
2023/09/16 10:52:12;;;;;;;6.55;4.15;;;22.10;99.90;;;;;;5086789;28;20111;-79
2023/09/16 10:54:44;;;;;;;5.57;4.13;;;22.30;99.90;;;;;;5065646;28;20064;-81
2023/09/16 10:57:20;;;;;;;6.68;4.20;;;22.50;99.90;;;;;;5070358;28;20028;-79
2023/09/16 10:59:50;;;;;;;9.88;4.03;;;22.60;99.90;;;;;;5076306;28;20031;-78
2023/09/16 11:02:41;;;;;;;6.57;4.47;;;22.70;99.90;;;;;;5069776;28;20482;-79
2023/09/16 11:05:07;;;;;;;6.27;5.00;;;22.70;99.90;;;;;;5069058;28;20037;-80
2023/09/16 11:07:33;;;;;;;8.10;4.20;;;22.90;99.90;;;;;;5088878;28;20587;-82
2023/09/16 11:10:01;;;;;;;6.00;4.07;;;23.10;99.90;;;;;;5064413;28;20024;-80
2023/09/16 11:12:27;;;;;;;9.02;4.45;;;23.30;99.90;;;;;;5065711;28;20032;-80
2023/09/16 11:14:53;;;;;;;4.50;3.80;;;23.40;99.90;;;;;;5075068;28;20029;-77
2023/09/16 11:17:22;;;;;;;9.95;4.13;;;23.70;99.90;;;;;;5080750;28;20023;-81
2023/09/16 11:19:47;;;;;;;4.85;3.75;;;23.90;99.90;;;;;;5060731;28;20077;-79
2023/09/16 11:22:13;;;;;;;5.10;3.97;;;23.90;99.90;;;;;;5087977;28;20107;-77
2023/09/16 11:24:39;;;;;;;5.05;3.78;;;23.90;99.90;;;;;;5094631;28;20032;-78
2023/09/16 11:27:05;;;;;;;4.32;3.63;;;23.90;99.90;;;;;;5094873;28;20493;-79
2023/09/16 11:29:31;;;;;;;6.75;3.78;;;24.00;99.90;;;;;;5094989;28;20054;-82
2023/09/16 11:31:58;;;;;;;7.45;3.78;;;23.90;99.90;;;;;;5094687;28;20020;-82
2023/09/16 11:34:26;;;;;;;5.47;3.58;;;23.80;99.90;;;;;;5082308;28;20093;-82
2023/09/16 11:36:54;;;;;;;5.00;3.45;;;23.90;99.90;;;;;;5076120;28;20032;-81
2023/09/16 11:39:34;;;;;;;4.70;3.53;;;23.90;99.90;;;;;;5073129;28;20048;-81
2023/09/16 11:42:00;;;;;;;4.38;3.80;;;24.00;99.90;;;;;;5075518;28;20032;-80
2023/09/16 11:44:27;;;;;;;8.02;3.78;;;24.10;99.90;;;;;;5089504;28;20062;-81
2023/09/16 11:46:54;;;;;;;4.45;3.65;;;24.10;99.90;;;;;;5095543;28;20601;-79
2023/09/16 11:49:20;;;;;;;3.60;3.10;;;24.10;99.90;;;;;;5073000;28;20488;-81
2023/09/16 11:51:50;;;;;;;5.47;3.40;;;24.20;99.90;;;;;;5065499;28;20048;-82
2023/09/16 11:54:17;;;;;;;5.05;3.42;;;24.40;99.90;;;;;;5082753;28;20098;-82
2023/09/16 11:56:42;;;;;;;4.40;3.30;;;24.50;99.90;;;;;;5081355;28;20048;-81
2023/09/16 11:59:08;;;;;;;6.22;3.42;;;24.70;99.90;;;;;;5092065;28;20036;-82
2023/09/16 12:01:36;;;;;;;5.68;3.20;;;24.90;99.90;;;;;;5081711;28;20075;-82
2023/09/16 12:04:05;;;;;;;4.32;3.42;;;25.00;99.90;;;;;;5075611;28;20051;-82
2023/09/16 12:06:34;;;;;;;4.22;3.10;;;25.10;99.90;;;;;;5074373;28;20685;-82
2023/09/16 12:09:03;;;;;;;7.40;3.28;;;25.20;99.90;;;;;;5057098;28;20016;-81
2023/09/16 12:11:29;;;;;;;3.72;2.95;;;25.30;99.90;;;;;;5060343;28;20031;-82
2023/09/16 12:13:55;;;;;;;5.20;3.30;;;25.50;99.90;;;;;;5080584;28;20106;-81
2023/09/16 12:16:23;;;;;;;6.30;3.28;;;25.60;99.90;;;;;;5075470;28;20032;-83
2023/09/16 12:18:49;;;;;;;4.05;3.22;;;25.70;99.90;;;;;;5057067;28;20039;-83
2023/09/16 12:21:15;;;;;;;4.32;2.97;;;25.80;99.90;;;;;;5057285;28;20020;-83
2023/09/16 12:23:41;;;;;;;5.47;3.20;;;25.90;99.90;;;;;;5074867;28;20031;-85
2023/09/16 12:26:11;;;;;;;2.83;2.53;;;25.90;99.90;;;;;;5054518;28;20039;-84
2023/09/16 12:28:38;;;;;;;5.10;3.28;;;26.20;99.90;;;;;;5061438;28;20028;-86
2023/09/16 12:31:08;;;;;;;5.95;3.00;;;26.20;99.90;;;;;;5081031;28;20020;-83
2023/09/16 12:33:43;;;;;;;5.53;3.03;;;26.20;99.90;;;;;;5063539;28;20024;-85
2023/09/16 12:36:15;;;;;;;7.22;3.38;;;26.10;99.80;;;;;;5082700;28;20465;-83
2023/09/16 12:38:40;;;;;;;3.88;2.72;;;26.10;99.90;;;;;;5076153;28;20031;-82
2023/09/16 12:41:06;;;;;;;4.97;2.95;;;26.00;99.70;;;;;;5063956;28;20040;-82
2023/09/16 12:43:32;;;;;;;2.90;2.60;;;26.00;99.80;;;;;;5067375;28;20047;-82